Time;durP1;ratioP1;P1;durP2;ratioP2;P2;SDS_P1;SDS_P2;PMS_P1;PMS_P2;Temp;Humidity;BMP_temperature;BMP_pressure;BME280_temperature;BME280_humidity;BME280_pressure;Samples;Min_cycle;Max_cycle;Signal;HPM_P1;HPM_P2
2021/04/26 00:03:14;;;;;;;1.93;1.83;;;;;;;5.63;60.44;99618.25;10374421;28;20631;-75
2021/04/26 00:08:33;;;;;;;2.10;2.00;;;;;;;5.60;61.37;99618.94;10373569;28;20208;-75
2021/04/26 00:13:52;;;;;;;1.20;1.10;;;;;;;5.60;60.89;99613.50;10357960;28;20549;-75
2021/04/26 00:19:11;;;;;;;2.03;0.80;;;;;;;5.57;61.55;99613.41;10359127;28;20565;-76
2021/04/26 00:24:30;;;;;;;2.73;0.93;;;;;;;5.55;61.50;99594.66;10373926;28;20200;-75
2021/04/26 00:29:49;;;;;;;0.90;0.50;;;;;;;5.50;61.73;99608.56;10357529;28;20177;-75
2021/04/26 00:35:09;;;;;;;1.67;0.60;;;;;;;5.44;62.14;99616.56;10359005;28;20185;-77
2021/04/26 00:40:28;;;;;;;0.90;0.60;;;;;;;5.38;62.36;99607.84;10358614;28;20553;-77
2021/04/26 00:45:47;;;;;;;0.90;0.67;;;;;;;5.30;62.59;99603.38;10371801;28;20228;-78
2021/04/26 00:51:06;;;;;;;1.10;1.00;;;;;;;5.28;62.54;99599.41;10373317;28;20635;-76
2021/04/26 00:56:25;;;;;;;1.00;0.90;;;;;;;5.16;62.78;99597.56;10372892;28;20209;-78
2021/04/26 01:01:44;;;;;;;1.27;0.87;;;;;;;5.15;62.64;99587.81;10376491;28;20169;-77
2021/04/26 01:07:03;;;;;;;1.00;0.83;;;;;;;4.99;63.06;99599.84;10365572;28;20224;-77
2021/04/26 01:12:42;;;;;;;1.10;0.77;;;;;;;4.91;63.11;99592.63;10365794;28;20180;-77
2021/04/26 01:18:17;;;;;;;1.70;1.20;;;;;;;4.77;63.50;99594.94;10380258;28;20631;-78
2021/04/26 01:24:00;;;;;;;1.10;0.70;;;;;;;4.60;63.80;99589.84;10380084;28;20173;-75
2021/04/26 01:29:34;;;;;;;1.30;0.90;;;;;;;4.46;64.58;99580.47;10378220;28;20228;-76
2021/04/26 01:34:55;;;;;;;1.10;0.80;;;;;;;4.42;64.53;99579.56;10379685;28;20216;-76
2021/04/26 01:40:14;;;;;;;1.70;1.60;;;;;;;4.35;64.97;99576.66;10378642;28;20260;-76
2021/04/26 01:45:36;;;;;;;3.03;0.90;;;;;;;4.17;65.36;99573.44;10377747;28;20300;-76
2021/04/26 01:50:57;;;;;;;1.40;0.83;;;;;;;4.02;65.62;99568.72;10378774;28;20177;-77
2021/04/26 01:56:17;;;;;;;21.00;1.47;;;;;;;3.79;66.72;99563.34;10378819;28;20197;-77
2021/04/26 02:01:37;;;;;;;1.60;1.20;;;;;;;3.63;66.65;99552.34;10376325;28;20738;-77
2021/04/26 02:06:58;;;;;;;0.90;0.60;;;;;;;3.55;67.04;99555.22;10363313;28;20291;-77
2021/04/26 02:12:17;;;;;;;1.40;1.30;;;;;;;3.48;67.28;99550.34;10363104;28;20259;-77
2021/04/26 02:17:37;;;;;;;1.00;0.80;;;;;;;3.40;67.50;99555.88;10376637;28;20205;-77
2021/04/26 02:22:55;;;;;;;1.40;1.27;;;;;;;3.32;68.08;99559.50;10362993;28;20545;-77
2021/04/26 02:28:14;;;;;;;3.20;1.43;;;;;;;3.21;68.18;99548.28;10375973;28;20230;-75
2021/04/26 02:33:38;;;;;;;0.90;0.50;;;;;;;3.07;68.61;99536.16;10377442;28;20173;-75
2021/04/26 02:39:04;;;;;;;1.10;0.77;;;;;;;2.92;69.19;99544.19;10377152;28;20173;-75
2021/04/26 02:44:27;;;;;;;4.30;1.63;;;;;;;2.80;69.29;99530.59;10360661;28;20619;-76
2021/04/26 02:49:47;;;;;;;4.90;0.87;;;;;;;2.66;70.17;99528.22;10375766;28;20533;-75
2021/04/26 02:55:08;;;;;;;1.43;1.13;;;;;;;2.61;70.91;99522.19;10376413;28;20224;-75
2021/04/26 03:00:28;;;;;;;1.20;1.10;;;;;;;2.59;70.77;99514.38;10360195;28;20184;-75
2021/04/26 03:05:49;;;;;;;1.20;1.10;;;;;;;2.50;70.84;99496.59;10376144;28;20570;-75
2021/04/26 03:11:12;;;;;;;1.10;0.90;;;;;;;2.40;70.86;99505.97;10376348;28;20263;-77
2021/04/26 03:16:31;;;;;;;1.00;0.90;;;;;;;2.33;71.07;99507.63;10374476;28;20176;-76
2021/04/26 03:21:52;;;;;;;0.90;0.60;;;;;;;2.28;71.34;99490.75;10374970;28;20181;-78
2021/04/26 03:27:12;;;;;;;1.90;0.60;;;;;;;2.20;71.86;99483.50;10375093;28;20212;-77
2021/04/26 03:32:31;;;;;;;11.90;1.57;;;;;;;2.06;72.04;99474.88;10372823;28;20252;-75
2021/04/26 03:37:52;;;;;;;2.20;1.00;;;;;;;1.93;73.01;99470.53;10360196;28;20181;-76
2021/04/26 03:43:14;;;;;;;1.63;1.53;;;;;;;1.96;72.73;99467.94;10373501;28;20635;-77
2021/04/26 03:48:33;;;;;;;1.20;0.90;;;;;;;1.92;72.87;99455.38;10373938;28;20235;-76
2021/04/26 03:53:52;;;;;;;0.90;0.50;;;;;;;1.97;72.50;99463.31;10374391;28;20197;-76
2021/04/26 03:59:11;;;;;;;0.90;0.60;;;;;;;1.93;72.40;99459.69;10373086;28;20184;-77
2021/04/26 04:04:30;;;;;;;0.90;0.80;;;;;;;1.87;72.36;99455.56;10373804;28;20255;-76
2021/04/26 04:09:49;;;;;;;0.80;0.50;;;;;;;1.75;72.97;99466.38;10359431;28;20571;-75
2021/04/26 04:15:10;;;;;;;1.77;0.60;;;;;;;1.67;73.29;99453.69;10371536;28;20173;-76
2021/04/26 04:20:29;;;;;;;4.97;1.73;;;;;;;1.68;73.22;99452.56;10372958;28;20180;-76
2021/04/26 04:25:48;;;;;;;1.13;1.00;;;;;;;1.65;74.22;99456.75;10373440;28;20236;-77
2021/04/26 04:31:07;;;;;;;1.33;1.20;;;;;;;1.64;74.27;99447.03;10357616;28;20263;-74
2021/04/26 04:36:26;;;;;;;1.00;0.80;;;;;;;1.69;74.14;99457.66;10379544;28;20181;-77
2021/04/26 04:41:45;;;;;;;2.43;1.47;;;;;;;1.77;73.66;99448.66;10381898;28;20177;-75
2021/04/26 04:47:04;;;;;;;2.17;0.73;;;;;;;1.80;73.82;99442.56;10364971;28;20256;-75
2021/04/26 04:52:23;;;;;;;0.87;0.53;;;;;;;1.89;73.97;99442.47;10381451;28;20169;-76
2021/04/26 04:57:42;;;;;;;1.00;0.80;;;;;;;2.05;73.65;99443.44;10380690;28;20231;-75
2021/04/26 05:03:01;;;;;;;27.93;1.70;;;;;;;2.38;71.99;99450.44;10364372;28;20196;-76
2021/04/26 05:08:20;;;;;;;3.83;1.40;;;;;;;2.55;71.85;99451.00;10379786;28;20208;-75
2021/04/26 05:13:39;;;;;;;1.60;0.87;;;;;;;2.71;72.37;99449.22;10379171;28;20177;-76
2021/04/26 05:18:59;;;;;;;1.20;0.93;;;;;;;3.04;71.09;99452.59;10380347;28;20177;-75
2021/04/26 05:24:19;;;;;;;1.00;0.80;;;;;;;3.24;70.44;99449.75;10380083;28;20177;-76
2021/04/26 05:29:38;;;;;;;1.27;1.17;;;;;;;3.56;69.77;99456.13;10363904;28;20188;-76
2021/04/26 05:34:57;;;;;;;1.07;0.77;;;;;;;3.89;68.02;99460.22;10379520;28;20632;-75
2021/04/26 05:40:16;;;;;;;1.10;0.87;;;;;;;3.99;69.64;99460.53;10379097;28;20189;-75
2021/04/26 05:45:36;;;;;;;15.13;1.50;;;;;;;4.39;68.04;99461.22;10377083;28;20228;-78
2021/04/26 05:50:55;;;;;;;0.90;0.60;;;;;;;4.75;68.03;99466.44;10379005;28;20172;-76
2021/04/26 05:56:15;;;;;;;1.10;0.90;;;;;;;5.24;66.28;99462.97;10378796;28;20209;-76
2021/04/26 06:01:34;;;;;;;1.80;1.70;;;;;;;5.64;62.94;99450.63;10377325;28;20184;-76
2021/04/26 06:06:53;;;;;;;4.50;0.60;;;;;;;6.01;61.92;99451.81;10363349;28;20651;-76
2021/04/26 06:12:12;;;;;;;1.30;1.20;;;;;;;6.54;61.14;99448.16;10363312;28;20581;-76
2021/04/26 06:17:31;;;;;;;1.40;1.10;;;;;;;6.90;56.91;99447.56;10362014;28;20185;-76
2021/04/26 06:22:50;;;;;;;1.40;1.10;;;;;;;7.20;55.16;99447.28;10377442;28;20264;-77
2021/04/26 06:28:13;;;;;;;1.10;0.70;;;;;;;7.53;52.99;99454.81;10375986;28;20208;-76
2021/04/26 06:33:33;;;;;;;1.37;1.27;;;;;;;7.94;51.44;99449.09;10377506;28;20185;-77
2021/04/26 06:38:52;;;;;;;1.20;0.80;;;;;;;8.10;49.79;99446.94;10362321;28;20181;-77
2021/04/26 06:44:11;;;;;;;2.27;1.47;;;;;;;8.58;48.15;99446.72;10360725;28;20220;-76
2021/04/26 06:49:31;;;;;;;1.63;1.33;;;;;;;8.80;46.59;99440.25;10375075;28;20201;-77
2021/04/26 06:54:50;;;;;;;1.30;0.90;;;;;;;9.33;46.51;99439.50;10375497;28;20201;-79
2021/04/26 07:00:11;;;;;;;1.77;1.00;;;;;;;9.75;43.36;99434.25;10374008;28;20185;-78
2021/04/26 07:05:31;;;;;;;1.20;0.90;;;;;;;9.98;42.58;99432.81;10375025;28;20287;-78
2021/04/26 07:10:50;;;;;;;1.10;0.80;;;;;;;10.26;42.29;99432.13;10361218;28;20255;-77
2021/04/26 07:16:10;;;;;;;2.07;1.00;;;;;;;10.85;39.92;99430.25;10374634;28;20181;-78
2021/04/26 07:21:28;;;;;;;1.77;1.37;;;;;;;10.99;38.51;99427.50;10375763;28;20180;-78
2021/04/26 07:26:48;;;;;;;1.37;0.90;;;;;;;11.20;37.80;99430.25;10360044;28;20200;-76
2021/04/26 07:32:07;;;;;;;1.80;1.20;;;;;;;11.80;36.66;99426.22;10373831;28;20531;-77
2021/04/26 07:37:26;;;;;;;1.93;0.90;;;;;;;11.93;35.65;99428.16;10374891;28;20534;-77
2021/04/26 07:42:46;;;;;;;1.67;1.57;;;;;;;12.10;33.88;99420.97;10374912;28;20177;-76
2021/04/26 07:48:05;;;;;;;1.00;0.70;;;;;;;12.40;32.42;99419.25;10373954;28;20720;-76
2021/04/26 07:53:25;;;;;;;0.90;0.57;;;;;;;12.72;33.93;99416.31;10374536;28;20188;-78
2021/04/26 07:58:44;;;;;;;2.03;1.13;;;;;;;12.88;33.19;99417.38;10373192;28;20224;-77
2021/04/26 08:04:04;;;;;;;3.20;0.90;;;;;;;13.09;31.32;99411.66;10359532;28;20181;-77
2021/04/26 08:09:23;;;;;;;0.90;0.50;;;;;;;13.33;31.66;99405.94;10358365;28;20207;-77
2021/04/26 08:14:42;;;;;;;1.10;0.60;;;;;;;13.93;30.34;99400.53;10372651;28;20180;-77
2021/04/26 08:20:01;;;;;;;1.00;0.60;;;;;;;13.94;30.83;99391.81;10359075;28;20213;-76
2021/04/26 08:25:20;;;;;;;0.90;0.50;;;;;;;14.42;29.11;99389.63;10358703;28;20197;-76
2021/04/26 08:30:39;;;;;;;1.57;0.60;;;;;;;14.28;29.78;99389.03;10372594;28;20263;-77
2021/04/26 08:35:59;;;;;;;7.57;1.00;;;;;;;14.53;27.72;99384.72;10371989;28;20204;-77
2021/04/26 08:41:17;;;;;;;1.10;0.63;;;;;;;14.54;28.24;99378.78;10373639;28;20181;-76
2021/04/26 08:46:41;;;;;;;1.63;0.80;;;;;;;14.85;27.34;99373.94;10371404;28;20625;-76
2021/04/26 08:52:00;;;;;;;1.10;0.83;;;;;;;15.74;27.68;99362.44;10373115;28;20205;-78
2021/04/26 08:57:21;;;;;;;1.27;1.10;;;;;;;15.74;26.95;99372.72;10356744;28;20181;-77
2021/04/26 09:02:58;;;;;;;1.00;0.70;;;;;;;16.09;28.05;99376.34;10354322;28;20184;-77
2021/04/26 09:08:23;;;;;;;2.20;1.03;;;;;;;16.85;24.72;99373.03;10372671;28;20679;-80
2021/04/26 09:13:47;;;;;;;1.30;0.90;;;;;;;16.90;25.19;99369.75;10356868;28;20180;-78
2021/04/26 09:19:08;;;;;;;2.37;0.90;;;;;;;16.89;25.13;99363.41;10372959;28;20181;-78
2021/04/26 09:24:29;;;;;;;1.10;1.00;;;;;;;16.96;25.34;99366.00;10379638;28;20207;-77
2021/04/26 09:29:47;;;;;;;1.40;1.13;;;;;;;16.97;23.91;99352.91;10378514;28;20271;-78
2021/04/26 09:35:07;;;;;;;1.93;1.00;;;;;;;17.08;23.67;99354.19;10379842;28;20579;-79
2021/04/26 09:40:26;;;;;;;1.10;0.73;;;;;;;17.79;23.79;99346.31;10379511;28;20635;-78
2021/04/26 09:45:45;;;;;;;1.00;0.50;;;;;;;18.30;23.33;99347.22;10377779;28;20228;-77
2021/04/26 09:51:23;;;;;;;1.43;1.10;;;;;;;17.70;22.30;99337.03;10377971;28;20232;-76
2021/04/26 09:56:44;;;;;;;1.57;1.30;;;;;;;18.49;22.68;99322.72;10378939;28;20180;-75
2021/04/26 10:02:04;;;;;;;1.00;0.70;;;;;;;18.47;22.13;99304.88;10362264;28;20192;-74
2021/04/26 10:07:23;;;;;;;1.03;0.70;;;;;;;18.52;22.13;99301.56;10360092;28;20220;-79
2021/04/26 10:12:42;;;;;;;1.20;0.70;;;;;;;19.20;22.96;99296.88;10378340;28;20180;-78
2021/04/26 10:18:04;;;;;;;1.47;0.93;;;;;;;19.76;20.21;99290.00;10349327;28;20172;-79
2021/04/26 10:23:32;;;;;;;1.17;0.90;;;;;;;19.73;20.43;99287.34;10378003;28;20173;-78
2021/04/26 10:29:16;;;;;;;8.10;0.73;;;;;;;19.88;20.63;99280.00;10360952;28;20228;-75
2021/04/26 10:34:41;;;;;;;1.30;0.67;;;;;;;19.65;21.10;99272.09;10362505;28;20611;-75
2021/04/26 10:40:04;;;;;;;1.47;0.77;;;;;;;19.56;18.90;99260.88;10376796;28;20267;-75
2021/04/26 10:45:27;;;;;;;1.10;0.73;;;;;;;19.82;18.73;99253.91;10360437;28;20224;-75
2021/04/26 10:50:51;;;;;;;1.00;0.77;;;;;;;20.80;19.47;99245.97;10376767;28;20200;-75
2021/04/26 10:56:23;;;;;;;1.40;0.93;;;;;;;20.14;18.83;99238.28;10361773;28;20185;-74
2021/04/26 11:01:50;;;;;;;1.10;0.80;;;;;;;20.55;18.90;99239.84;10375135;28;20216;-77
2021/04/26 11:07:17;;;;;;;1.00;0.70;;;;;;;20.62;18.62;99215.13;10376006;28;20208;-77
2021/04/26 11:12:37;;;;;;;1.03;0.70;;;;;;;20.55;19.06;99203.50;10360665;28;20188;-76
2021/04/26 11:18:13;;;;;;;1.90;1.27;;;;;;;21.27;18.17;99199.53;10375891;28;20172;-77
2021/04/26 11:23:45;;;;;;;5.27;0.80;;;;;;;21.65;18.08;99194.19;10375660;28;20185;-77
2021/04/26 11:29:08;;;;;;;1.10;0.80;;;;;;;22.05;18.27;99170.22;10372567;28;20205;-76
2021/04/26 11:34:48;;;;;;;1.87;1.07;;;;;;;21.44;17.74;99171.97;10375263;28;20181;-78
2021/04/26 11:40:19;;;;;;;2.00;0.93;;;;;;;21.72;18.50;99160.25;10360166;28;20283;-78
2021/04/26 11:45:38;;;;;;;1.43;1.20;;;;;;;21.73;18.38;99159.00;10372587;28;20233;-79
2021/04/26 11:50:57;;;;;;;1.20;0.90;;;;;;;21.93;17.85;99142.41;10374359;28;20240;-79
2021/04/26 11:56:16;;;;;;;1.53;1.43;;;;;;;21.83;17.26;99132.53;10374602;28;20200;-78
2021/04/26 12:01:49;;;;;;;1.40;1.27;;;;;;;21.83;16.05;99121.31;10372811;28;20208;-77
2021/04/26 12:07:11;;;;;;;1.60;0.90;;;;;;;22.48;17.20;99108.03;10374047;28;20228;-78
2021/04/26 12:12:31;;;;;;;1.20;0.90;;;;;;;22.77;17.10;99094.88;10374211;28;20184;-77
2021/04/26 12:17:54;;;;;;;1.20;0.90;;;;;;;22.65;16.72;99086.72;10373254;28;20188;-77
2021/04/26 12:23:18;;;;;;;1.27;0.97;;;;;;;22.00;17.01;99086.06;10373238;28;20193;-78
2021/04/26 12:28:41;;;;;;;1.10;0.90;;;;;;;22.67;17.19;99073.00;10331542;28;20209;-78
2021/04/26 12:34:09;;;;;;;1.60;1.33;;;;;;;23.23;16.35;99081.97;10333014;28;20205;-78
2021/04/26 12:39:28;;;;;;;1.20;1.00;;;;;;;23.68;16.10;99076.59;10332968;28;20181;-78
2021/04/26 12:44:49;;;;;;;1.20;1.00;;;;;;;22.94;16.52;99069.94;10331596;28;20221;-78
2021/04/26 12:50:15;;;;;;;1.10;0.80;;;;;;;23.23;15.43;99062.31;10332642;28;20212;-77
2021/04/26 12:55:48;;;;;;;1.70;0.93;;;;;;;23.48;16.45;99047.69;10333707;28;20177;-78
2021/04/26 13:01:13;;;;;;;1.00;0.70;;;;;;;23.48;15.85;99033.63;10338228;28;20177;-79
2021/04/26 13:06:36;;;;;;;1.13;1.03;;;;;;;23.07;17.35;99025.56;10340153;28;20213;-79
2021/04/26 13:11:57;;;;;;;1.17;0.90;;;;;;;23.65;15.84;99021.41;10340156;28;20701;-78
2021/04/26 13:17:16;;;;;;;1.37;1.10;;;;;;;23.58;15.47;98996.53;10338569;28;20170;-78
2021/04/26 13:22:35;;;;;;;1.73;1.10;;;;;;;23.85;16.53;98982.13;10325060;28;20632;-78
2021/04/26 13:27:54;;;;;;;1.20;1.00;;;;;;;23.53;16.33;98974.75;10338243;28;20205;-78
2021/04/26 13:33:13;;;;;;;1.77;1.30;;;;;;;23.29;15.63;98964.16;10324890;28;20530;-78
2021/04/26 13:38:33;;;;;;;1.30;1.10;;;;;;;23.18;16.54;98944.34;10324499;28;20178;-79
2021/04/26 13:43:53;;;;;;;1.07;0.87;;;;;;;23.15;17.34;98936.91;10322793;28;20181;-78
2021/04/26 13:49:12;;;;;;;1.60;1.07;;;;;;;22.94;16.74;98938.06;10323213;28;20216;-78
2021/04/26 13:54:31;;;;;;;2.20;1.03;;;;;;;22.89;14.89;98936.72;10323691;28;20185;-80
2021/04/26 13:59:50;;;;;;;1.20;0.83;;;;;;;23.17;16.98;98925.97;10322240;28;20181;-78
2021/04/26 14:05:10;;;;;;;1.00;0.83;;;;;;;23.25;16.52;98916.66;10337802;28;20174;-76
2021/04/26 14:10:28;;;;;;;1.13;1.00;;;;;;;22.71;17.14;98916.50;10337368;28;20189;-79
2021/04/26 14:15:48;;;;;;;1.67;1.20;;;;;;;23.13;16.44;98912.13;10336189;28;20542;-79
2021/04/26 14:21:08;;;;;;;1.10;0.80;;;;;;;23.42;15.29;98895.97;10322913;28;20260;-78
2021/04/26 14:26:27;;;;;;;1.20;0.90;;;;;;;23.24;15.24;98889.84;10336971;28;20567;-77
2021/04/26 14:31:46;;;;;;;2.73;1.03;;;;;;;24.18;15.72;98882.13;10335754;28;20178;-79
2021/04/26 14:37:05;;;;;;;1.30;1.20;;;;;;;23.58;15.97;98872.19;10335740;28;20177;-78
2021/04/26 14:42:25;;;;;;;1.80;1.27;;;;;;;23.90;15.69;98869.03;10336255;28;20174;-78
2021/04/26 14:47:44;;;;;;;7.23;1.40;;;;;;;23.01;16.41;98859.09;10334472;28;20225;-79
2021/04/26 14:53:03;;;;;;;1.37;1.10;;;;;;;23.22;17.20;98850.28;10335240;28;20232;-79
2021/04/26 14:58:23;;;;;;;1.70;1.47;;;;;;;22.72;17.12;98854.34;10334783;28;20178;-78
2021/04/26 15:03:43;;;;;;;1.63;1.00;;;;;;;23.10;17.05;98850.59;10334647;28;20189;-79
2021/04/26 15:09:03;;;;;;;1.70;0.70;;;;;;;22.72;16.31;98833.91;10335040;28;20241;-78
2021/04/26 15:14:22;;;;;;;1.50;1.33;;;;;;;22.52;16.02;98834.63;10334171;28;20185;-78
2021/04/26 15:19:44;;;;;;;2.70;1.30;;;;;;;21.94;17.13;98825.41;10333448;28;20181;-77
2021/04/26 15:25:05;;;;;;;1.10;0.90;;;;;;;22.78;16.42;98827.13;10320211;28;20181;-80
2021/04/26 15:30:25;;;;;;;1.40;0.93;;;;;;;22.58;16.28;98823.50;10332656;28;20177;-79
2021/04/26 15:35:45;;;;;;;1.33;1.00;;;;;;;22.45;18.48;98822.25;10320057;28;20185;-78
2021/04/26 15:41:05;;;;;;;1.67;1.57;;;;;;;21.46;19.43;98819.59;10333725;28;20180;-77
2021/04/26 15:46:24;;;;;;;1.27;0.90;;;;;;;21.99;17.90;98823.97;10331564;28;20232;-76
2021/04/26 15:51:43;;;;;;;3.50;0.80;;;;;;;21.76;17.50;98813.63;10334085;28;20204;-78
2021/04/26 15:57:03;;;;;;;4.60;1.00;;;;;;;21.87;17.94;98805.41;10319361;28;20583;-77
2021/04/26 16:02:23;;;;;;;1.00;0.80;;;;;;;22.15;17.34;98798.28;10332614;28;20177;-77
2021/04/26 16:07:42;;;;;;;1.30;1.10;;;;;;;21.25;17.54;98787.88;10318789;28;20217;-77
2021/04/26 16:13:01;;;;;;;1.10;0.80;;;;;;;21.11;18.26;98785.78;10332176;28;20256;-76
2021/04/26 16:18:20;;;;;;;1.23;0.97;;;;;;;20.62;19.94;98778.28;10318675;28;20174;-76
2021/04/26 16:23:39;;;;;;;1.07;0.87;;;;;;;20.12;19.51;98771.47;10333273;28;20182;-76
2021/04/26 16:28:58;;;;;;;1.73;1.27;;;;;;;20.58;19.17;98761.69;10316924;28;20209;-76
2021/04/26 16:34:17;;;;;;;3.30;0.80;;;;;;;19.23;19.89;98758.41;10340565;28;20181;-78
2021/04/26 16:39:36;;;;;;;1.43;1.10;;;;;;;18.55;21.07;98760.13;10326700;28;20610;-76
2021/04/26 16:44:55;;;;;;;1.80;1.30;;;;;;;17.48;22.44;98751.19;10339908;28;20217;-79
2021/04/26 16:50:14;;;;;;;1.80;1.30;;;;;;;16.86;22.99;98747.41;10326124;28;20209;-78
2021/04/26 16:55:33;;;;;;;1.30;1.17;;;;;;;16.78;23.11;98751.66;10340865;28;20263;-79
2021/04/26 17:00:52;;;;;;;1.87;1.77;;;;;;;16.56;22.83;98752.03;10339225;28;20181;-78
2021/04/26 17:06:12;;;;;;;1.27;0.90;;;;;;;16.49;23.23;98749.47;10340301;28;20687;-79
2021/04/26 17:11:31;;;;;;;1.30;1.13;;;;;;;16.48;22.58;98743.16;10339208;28;20178;-78
2021/04/26 17:16:50;;;;;;;2.93;1.53;;;;;;;16.43;22.82;98734.59;10338835;28;20189;-79
2021/04/26 17:22:09;;;;;;;1.37;1.10;;;;;;;16.59;22.36;98737.25;10325074;28;20189;-77
2021/04/26 17:27:28;;;;;;;1.30;1.00;;;;;;;16.23;23.50;98740.38;10339357;28;20250;-79
2021/04/26 17:32:47;;;;;;;1.60;0.83;;;;;;;17.66;21.18;98754.88;10338240;28;20170;-78
2021/04/26 17:38:07;;;;;;;1.50;1.17;;;;;;;18.15;21.39;98750.19;10339275;28;20639;-79
2021/04/26 17:43:26;;;;;;;1.27;0.90;;;;;;;18.75;20.58;98740.97;10335944;28;20631;-79
2021/04/26 17:48:44;;;;;;;1.30;0.83;;;;;;;18.30;21.01;98749.19;10337839;28;20259;-77
2021/04/26 17:54:04;;;;;;;1.73;1.10;;;;;;;16.72;23.02;98743.56;10338803;28;20174;-80
2021/04/26 17:59:22;;;;;;;1.20;0.83;;;;;;;15.30;25.54;98752.31;10337244;28;20252;-77
2021/04/26 18:04:41;;;;;;;1.33;0.80;;;;;;;14.65;26.22;98736.22;10338104;28;20181;-78
2021/04/26 18:10:00;;;;;;;1.60;1.50;;;;;;;14.16;26.95;98754.03;10322691;28;20247;-78
2021/04/26 18:15:20;;;;;;;1.73;1.00;;;;;;;13.72;27.56;98754.63;10336820;28;20181;-78
2021/04/26 18:20:39;;;;;;;1.63;1.27;;;;;;;13.40;28.59;98747.44;10338083;28;20528;-77
2021/04/26 18:25:59;;;;;;;1.43;0.97;;;;;;;13.08;28.86;98758.34;10322320;28;20201;-79
2021/04/26 18:31:18;;;;;;;1.70;1.50;;;;;;;12.68;29.30;98748.34;10334929;28;20299;-77
2021/04/26 18:36:37;;;;;;;3.90;1.60;;;;;;;12.39;29.65;98754.81;10322121;28;20177;-77
2021/04/26 18:41:57;;;;;;;3.70;1.37;;;;;;;12.09;30.07;98757.63;10322110;28;20216;-78
2021/04/26 18:47:15;;;;;;;1.57;1.40;;;;;;;11.80;30.51;98761.19;10334749;28;20607;-77
2021/04/26 18:52:36;;;;;;;3.00;1.20;;;;;;;11.57;31.08;98770.19;10321729;28;20571;-78
2021/04/26 18:57:56;;;;;;;3.07;1.20;;;;;;;11.33;32.04;98770.44;10335591;28;20259;-78
2021/04/26 19:03:15;;;;;;;1.70;1.60;;;;;;;11.09;32.68;98771.50;10335973;28;20181;-79
2021/04/26 19:08:34;;;;;;;1.60;1.20;;;;;;;10.98;32.82;98775.56;10335317;28;20205;-78
2021/04/26 19:13:53;;;;;;;1.63;1.53;;;;;;;10.72;33.26;98788.00;10334086;28;20173;-77
2021/04/26 19:19:12;;;;;;;2.33;1.10;;;;;;;10.55;33.75;98802.69;10335218;28;20263;-78
2021/04/26 19:24:31;;;;;;;1.50;1.40;;;;;;;10.32;33.63;98803.66;10334954;28;20178;-77
2021/04/26 19:29:50;;;;;;;8.00;1.10;;;;;;;10.15;34.47;98812.81;10333289;28;20735;-79
2021/04/26 19:35:10;;;;;;;5.40;1.70;;;;;;;10.05;34.67;98805.41;10319953;28;20532;-79
2021/04/26 19:40:29;;;;;;;1.87;1.20;;;;;;;9.91;34.84;98810.97;10320026;28;20189;-78
2021/04/26 19:45:48;;;;;;;3.63;1.80;;;;;;;9.81;35.09;98811.81;10331639;28;20312;-78
2021/04/26 19:51:07;;;;;;;1.20;1.07;;;;;;;9.64;35.20;98810.72;10333454;28;20730;-79
2021/04/26 19:56:26;;;;;;;1.87;1.30;;;;;;;9.61;35.92;98808.00;10319173;28;20255;-78
2021/04/26 20:01:46;;;;;;;3.83;1.50;;;;;;;9.43;36.88;98811.97;10318009;28;20676;-79
2021/04/26 20:07:06;;;;;;;11.80;3.37;;;;;;;9.25;37.45;98811.28;10333197;28;20213;-77
2021/04/26 20:12:25;;;;;;;1.53;1.30;;;;;;;9.22;37.94;98812.06;10318880;28;20173;-78
2021/04/26 20:17:46;;;;;;;2.70;1.70;;;;;;;9.16;38.33;98822.66;10331410;28;20173;-78
2021/04/26 20:23:05;;;;;;;2.30;1.57;;;;;;;8.93;39.05;98838.75;10333429;28;20189;-78
2021/04/26 20:28:24;;;;;;;2.30;1.33;;;;;;;8.87;39.24;98840.34;10317123;28;20237;-77
2021/04/26 20:33:43;;;;;;;4.53;1.80;;;;;;;8.74;39.81;98838.41;10333174;28;20177;-77
2021/04/26 20:39:02;;;;;;;2.40;2.20;;;;;;;8.68;39.80;98837.22;10333179;28;20173;-77
2021/04/26 20:44:21;;;;;;;1.83;1.73;;;;;;;8.61;40.30;98833.69;10316779;28;20264;-77
2021/04/26 20:49:40;;;;;;;1.90;1.70;;;;;;;8.48;40.16;98833.31;10331294;28;20683;-76
2021/04/26 20:55:00;;;;;;;2.03;1.83;;;;;;;8.41;40.70;98837.97;10332937;28;20185;-77
2021/04/26 21:00:23;;;;;;;1.40;1.30;;;;;;;8.29;40.99;98841.13;10331496;28;20574;-77
2021/04/26 21:05:42;;;;;;;2.20;1.53;;;;;;;8.18;41.37;98835.63;10332812;28;20261;-78
2021/04/26 21:11:02;;;;;;;2.07;1.87;;;;;;;8.13;41.20;98840.69;10331614;28;20260;-76
2021/04/26 21:16:21;;;;;;;1.40;1.30;;;;;;;8.11;41.57;98834.78;10317257;28;20185;-76
2021/04/26 21:21:40;;;;;;;1.67;1.57;;;;;;;7.92;41.88;98843.34;10340081;28;20260;-77
2021/04/26 21:26:59;;;;;;;1.70;1.53;;;;;;;7.79;42.65;98833.94;10339751;28;20241;-76
2021/04/26 21:32:18;;;;;;;1.50;1.40;;;;;;;7.74;42.52;98825.31;10338314;28;20181;-76
2021/04/26 21:37:37;;;;;;;3.87;3.13;;;;;;;7.76;42.70;98823.75;10339578;28;20181;-77
2021/04/26 21:43:01;;;;;;;2.27;1.10;;;;;;;7.64;42.92;98832.31;10338744;28;20173;-78
2021/04/26 21:48:22;;;;;;;1.17;0.97;;;;;;;7.58;43.05;98824.84;10338419;28;20598;-76
2021/04/26 21:53:41;;;;;;;5.80;1.63;;;;;;;7.52;43.21;98829.16;10337936;28;20205;-75
2021/04/26 21:59:00;;;;;;;2.60;1.60;;;;;;;7.39;44.14;98830.66;10337271;28;20178;-77
2021/04/26 22:04:18;;;;;;;4.03;1.10;;;;;;;7.40;44.08;98833.00;10323647;28;20589;-78
2021/04/26 22:09:37;;;;;;;2.43;1.90;;;;;;;7.35;44.46;98827.88;10337567;28;20246;-78
2021/04/26 22:14:56;;;;;;;1.53;1.43;;;;;;;7.16;44.67;98822.72;10335780;28;20177;-77
2021/04/26 22:20:19;;;;;;;4.37;2.33;;;;;;;7.10;44.43;98833.63;10337632;28;20582;-76
2021/04/26 22:25:38;;;;;;;2.17;1.97;;;;;;;7.07;44.99;98828.91;10337604;28;20245;-78
2021/04/26 22:30:57;;;;;;;1.30;0.90;;;;;;;7.01;45.41;98825.75;10334862;28;20170;-78
2021/04/26 22:36:16;;;;;;;4.97;1.10;;;;;;;6.88;45.66;98834.66;10322508;28;20161;-77
2021/04/26 22:41:35;;;;;;;1.20;0.90;;;;;;;6.83;46.56;98824.84;10322359;28;20185;-77
2021/04/26 22:46:53;;;;;;;2.20;1.47;;;;;;;6.66;46.78;98825.50;10334709;28;20229;-77
2021/04/26 22:52:12;;;;;;;1.60;1.50;;;;;;;6.43;47.07;98814.00;10336517;28;20260;-76
2021/04/26 22:57:33;;;;;;;1.20;1.10;;;;;;;6.32;46.94;98808.84;10336262;28;20563;-77
2021/04/26 23:02:53;;;;;;;1.37;0.90;;;;;;;6.18;47.49;98809.50;10320178;28;20194;-77
2021/04/26 23:08:14;;;;;;;1.10;0.70;;;;;;;5.93;48.10;98807.72;10335607;28;20624;-79
2021/04/26 23:13:33;;;;;;;2.13;1.10;;;;;;;5.89;48.96;98806.88;10319810;28;20177;-77
2021/04/26 23:18:52;;;;;;;1.30;1.20;;;;;;;5.74;49.16;98808.66;10335571;28;20169;-77
2021/04/26 23:24:11;;;;;;;1.40;1.03;;;;;;;5.70;49.21;98805.13;10335409;28;20173;-78
2021/04/26 23:29:31;;;;;;;2.37;1.57;;;;;;;5.64;49.52;98790.25;10333421;28;20208;-78
2021/04/26 23:34:50;;;;;;;1.10;0.97;;;;;;;5.64;50.37;98787.50;10333830;28;20181;-77
2021/04/26 23:40:10;;;;;;;1.10;1.00;;;;;;;5.57;50.49;98778.44;10319392;28;20185;-77
2021/04/26 23:45:29;;;;;;;1.40;0.90;;;;;;;5.57;50.21;98765.59;10332748;28;20581;-76
2021/04/26 23:50:49;;;;;;;1.97;1.40;;;;;;;5.46;50.49;98766.63;10334524;28;20181;-76
2021/04/26 23:56:08;;;;;;;1.20;1.10;;;;;;;5.42;50.72;98762.28;10334307;28;20185;-79
